Doyle, TN (38559)

5:21 AM CDT on August 26, 2016 (GMT -0500)
Sugar Pea Farm | | Change Station
Active Advisory: Special Statement

Elev 925 ft 35.86 °N, 85.48 °W | Updated 17 seconds ago

Clear
Clear
72.3 °F
Feels Like 75 °F
N
0.0
Wind Variable Wind from WNW
Gusts 0.0 mph

Today
High -- | Low -- °F
--% Chance of Precip.
Yesterday
High -- | Low -- °F
Precip. -- in
Pressure 30.12 in
Visibility 4.0 miles
Clouds Clear
Heat Index 75 °F
Dew Point 62 °F
Humidity 69%
Rainfall 0.00 in
Snow Depth Not available.
6:09 AM 7:16 PM
Waning Crescent, 36% visible
METAR KSRB 261015Z AUTO 00000KT 4SM CLR 21/21 A3012 RMK
Pressure 30.12 in
Visibility 4.0 miles
Clouds Clear
Heat Index 75 °F
Dew Point 62 °F
Humidity 69%
Rainfall 0.00 in
Snow Depth Not available.
6:09 AM 7:16 PM
Waning Crescent, 36% visible
METAR KSRB 261015Z AUTO 00000KT 4SM CLR 21/21 A3012 RMK

10-Day Weather Forecast

Almanac

Astronomy

Aug. 26, 2016 Rise Set
Actual Time
Civil Twilight
Nautical Twilight
Astronomical Twilight
Moon
Length of Visible Light
Length of Day
Tomorrow will be .
, % of the Moon is Illuminated

Today's Extremes

State Highs State Lows

Community

WunderPhotos

Upload Photos

1,935,069 photos uploaded!

WunderBlog® & News

Nearby

Air Quality

  Air Quality AQ Index Pollutant
Not available.

Snow Depth

Station Depth Elevation

Earthquake Activity

City Distance Mag. Time & Date
Minimum magnitude displayed is 2.5.

Coastal Water Temperatures

Place Temperature

Stations

Nearby Weather Stations

Station Location Temp. Windchill Dew Point Humidity Wind Precip. Elev Updated Type
                   

Watches & Warnings

Special Statement
Issued: 5:12 AM CDT Aug. 26, 2016 – National Weather Service

... Patchy fog has developed in parts of middle Tennessee this
morning...

Patchy fog is reducing visibiliies down to one half mile in a few
locations around middle Tennessee. The patchy coverage of fog
means that the visibility may drop suddenly... especially around
lakes and streams... so motorists are urged to use caution and use
low beam headlights when passing through foggy areas. Conditions
will improve 8 am and 9 am.

Boyd